sensor_id;sensor_type;location;lat;lon;timestamp;P1;durP1;ratioP1;P2;durP2;ratioP2
7571;SDS011;3827;49.928;8.548;2023-11-19T00:02:29;13.25;;;11.85;;
7571;SDS011;3827;49.928;8.548;2023-11-19T00:04:56;18.15;;;16.45;;
7571;SDS011;3827;49.928;8.548;2023-11-19T00:07:24;11.20;;;9.82;;
7571;SDS011;3827;49.928;8.548;2023-11-19T00:09:51;12.80;;;11.60;;
7571;SDS011;3827;49.928;8.548;2023-11-19T00:12:18;14.23;;;12.88;;
7571;SDS011;3827;49.928;8.548;2023-11-19T00:14:44;11.80;;;10.63;;
7571;SDS011;3827;49.928;8.548;2023-11-19T00:17:11;11.77;;;10.68;;
7571;SDS011;3827;49.928;8.548;2023-11-19T00:19:38;11.48;;;10.27;;
7571;SDS011;3827;49.928;8.548;2023-11-19T00:22:05;11.30;;;10.13;;
7571;SDS011;3827;49.928;8.548;2023-11-19T00:24:33;10.73;;;9.73;;
7571;SDS011;3827;49.928;8.548;2023-11-19T00:27:00;10.20;;;9.20;;
7571;SDS011;3827;49.928;8.548;2023-11-19T00:29:27;9.93;;;9.02;;
7571;SDS011;3827;49.928;8.548;2023-11-19T00:31:54;10.75;;;9.45;;
7571;SDS011;3827;49.928;8.548;2023-11-19T00:34:20;9.23;;;8.32;;
7571;SDS011;3827;49.928;8.548;2023-11-19T00:36:48;9.05;;;8.25;;
7571;SDS011;3827;49.928;8.548;2023-11-19T00:39:21;9.27;;;8.30;;
7571;SDS011;3827;49.928;8.548;2023-11-19T00:41:49;9.52;;;8.70;;
7571;SDS011;3827;49.928;8.548;2023-11-19T00:44:16;10.18;;;9.20;;
7571;SDS011;3827;49.928;8.548;2023-11-19T00:46:43;9.73;;;8.77;;
7571;SDS011;3827;49.928;8.548;2023-11-19T00:49:09;10.20;;;9.20;;
7571;SDS011;3827;49.928;8.548;2023-11-19T00:51:37;9.90;;;9.00;;
7571;SDS011;3827;49.928;8.548;2023-11-19T00:54:03;10.40;;;9.40;;
7571;SDS011;3827;49.928;8.548;2023-11-19T00:56:30;10.20;;;9.32;;
7571;SDS011;3827;49.928;8.548;2023-11-19T00:58:59;9.87;;;8.97;;
7571;SDS011;3827;49.928;8.548;2023-11-19T01:01:26;9.80;;;8.90;;
7571;SDS011;3827;49.928;8.548;2023-11-19T01:03:53;9.70;;;8.90;;
7571;SDS011;3827;49.928;8.548;2023-11-19T01:06:26;9.73;;;8.85;;
7571;SDS011;3827;49.928;8.548;2023-11-19T01:08:53;10.00;;;9.00;;
7571;SDS011;3827;49.928;8.548;2023-11-19T01:11:21;9.90;;;8.95;;
7571;SDS011;3827;49.928;8.548;2023-11-19T01:13:49;9.38;;;8.57;;
7571;SDS011;3827;49.928;8.548;2023-11-19T01:16:17;9.60;;;8.73;;
7571;SDS011;3827;49.928;8.548;2023-11-19T01:18:46;10.00;;;9.00;;
7571;SDS011;3827;49.928;8.548;2023-11-19T01:21:13;10.27;;;9.38;;
7571;SDS011;3827;49.928;8.548;2023-11-19T01:23:40;9.93;;;9.03;;
7571;SDS011;3827;49.928;8.548;2023-11-19T01:26:08;12.15;;;11.15;;
7571;SDS011;3827;49.928;8.548;2023-11-19T01:28:36;10.38;;;9.50;;
7571;SDS011;3827;49.928;8.548;2023-11-19T01:31:04;12.50;;;11.40;;
7571;SDS011;3827;49.928;8.548;2023-11-19T01:33:33;9.93;;;9.13;;
7571;SDS011;3827;49.928;8.548;2023-11-19T01:36:00;12.30;;;11.20;;
7571;SDS011;3827;49.928;8.548;2023-11-19T01:38:27;10.05;;;9.18;;
7571;SDS011;3827;49.928;8.548;2023-11-19T01:40:55;9.85;;;9.05;;
7571;SDS011;3827;49.928;8.548;2023-11-19T01:43:30;8.30;;;7.60;;
7571;SDS011;3827;49.928;8.548;2023-11-19T01:45:59;9.38;;;8.52;;
7571;SDS011;3827;49.928;8.548;2023-11-19T01:48:26;12.10;;;11.00;;
7571;SDS011;3827;49.928;8.548;2023-11-19T01:50:54;10.73;;;9.82;;
7571;SDS011;3827;49.928;8.548;2023-11-19T01:53:22;9.10;;;8.30;;
7571;SDS011;3827;49.928;8.548;2023-11-19T01:55:50;8.18;;;7.47;;
7571;SDS011;3827;49.928;8.548;2023-11-19T01:58:17;8.23;;;7.53;;
7571;SDS011;3827;49.928;8.548;2023-11-19T02:00:44;7.87;;;7.07;;
7571;SDS011;3827;49.928;8.548;2023-11-19T02:03:11;7.47;;;6.78;;
7571;SDS011;3827;49.928;8.548;2023-11-19T02:05:39;6.32;;;5.82;;
7571;SDS011;3827;49.928;8.548;2023-11-19T02:08:07;6.88;;;6.28;;
7571;SDS011;3827;49.928;8.548;2023-11-19T02:10:35;6.53;;;5.90;;
7571;SDS011;3827;49.928;8.548;2023-11-19T02:13:01;5.88;;;5.43;;
7571;SDS011;3827;49.928;8.548;2023-11-19T02:15:30;5.70;;;5.20;;
7571;SDS011;3827;49.928;8.548;2023-11-19T02:17:57;5.93;;;5.47;;
7571;SDS011;3827;49.928;8.548;2023-11-19T02:20:43;5.88;;;5.38;;
7571;SDS011;3827;49.928;8.548;2023-11-19T02:23:11;5.43;;;5.03;;
7571;SDS011;3827;49.928;8.548;2023-11-19T02:25:39;5.45;;;4.95;;
7571;SDS011;3827;49.928;8.548;2023-11-19T02:28:08;5.15;;;4.75;;
7571;SDS011;3827;49.928;8.548;2023-11-19T02:30:37;5.18;;;4.68;;
7571;SDS011;3827;49.928;8.548;2023-11-19T02:33:04;4.95;;;4.55;;
7571;SDS011;3827;49.928;8.548;2023-11-19T02:35:31;4.53;;;4.20;;
7571;SDS011;3827;49.928;8.548;2023-11-19T02:37:59;5.32;;;4.82;;
7571;SDS011;3827;49.928;8.548;2023-11-19T02:40:26;4.90;;;4.50;;
7571;SDS011;3827;49.928;8.548;2023-11-19T02:42:53;5.20;;;4.80;;
7571;SDS011;3827;49.928;8.548;2023-11-19T02:45:21;4.47;;;4.07;;
7571;SDS011;3827;49.928;8.548;2023-11-19T02:47:49;4.53;;;4.20;;
7571;SDS011;3827;49.928;8.548;2023-11-19T02:50:17;4.70;;;4.30;;
7571;SDS011;3827;49.928;8.548;2023-11-19T02:52:50;4.32;;;3.97;;
7571;SDS011;3827;49.928;8.548;2023-11-19T02:55:18;4.30;;;4.00;;
7571;SDS011;3827;49.928;8.548;2023-11-19T02:57:45;4.30;;;3.90;;
7571;SDS011;3827;49.928;8.548;2023-11-19T03:00:14;4.15;;;3.83;;
7571;SDS011;3827;49.928;8.548;2023-11-19T03:02:42;4.40;;;4.10;;
7571;SDS011;3827;49.928;8.548;2023-11-19T03:05:10;4.20;;;3.90;;
7571;SDS011;3827;49.928;8.548;2023-11-19T03:07:39;5.15;;;4.10;;
7571;SDS011;3827;49.928;8.548;2023-11-19T03:10:11;4.30;;;3.90;;
7571;SDS011;3827;49.928;8.548;2023-11-19T03:12:39;4.32;;;3.92;;
7571;SDS011;3827;49.928;8.548;2023-11-19T03:15:06;4.28;;;3.97;;
7571;SDS011;3827;49.928;8.548;2023-11-19T03:17:35;4.18;;;3.70;;
7571;SDS011;3827;49.928;8.548;2023-11-19T03:20:04;3.83;;;3.53;;
7571;SDS011;3827;49.928;8.548;2023-11-19T03:22:34;4.38;;;3.40;;
7571;SDS011;3827;49.928;8.548;2023-11-19T03:25:03;3.40;;;3.10;;
7571;SDS011;3827;49.928;8.548;2023-11-19T03:27:30;3.40;;;3.20;;
7571;SDS011;3827;49.928;8.548;2023-11-19T03:29:56;3.60;;;3.30;;
7571;SDS011;3827;49.928;8.548;2023-11-19T03:32:23;3.60;;;3.30;;
7571;SDS011;3827;49.928;8.548;2023-11-19T03:34:50;3.30;;;3.10;;
7571;SDS011;3827;49.928;8.548;2023-11-19T03:37:18;3.90;;;3.53;;
7571;SDS011;3827;49.928;8.548;2023-11-19T03:39:45;3.63;;;3.33;;
7571;SDS011;3827;49.928;8.548;2023-11-19T03:42:11;4.32;;;3.50;;
7571;SDS011;3827;49.928;8.548;2023-11-19T03:44:38;3.90;;;3.55;;
7571;SDS011;3827;49.928;8.548;2023-11-19T03:47:05;3.97;;;3.55;;
7571;SDS011;3827;49.928;8.548;2023-11-19T03:49:32;4.68;;;3.80;;
7571;SDS011;3827;49.928;8.548;2023-11-19T03:51:58;4.00;;;3.70;;
7571;SDS011;3827;49.928;8.548;2023-11-19T03:54:27;4.03;;;3.33;;
7571;SDS011;3827;49.928;8.548;2023-11-19T03:56:54;3.40;;;3.17;;
7571;SDS011;3827;49.928;8.548;2023-11-19T03:59:19;3.42;;;3.13;;
7571;SDS011;3827;49.928;8.548;2023-11-19T04:01:46;3.25;;;2.90;;
7571;SDS011;3827;49.928;8.548;2023-11-19T04:04:13;3.60;;;2.92;;
7571;SDS011;3827;49.928;8.548;2023-11-19T04:06:40;3.00;;;2.70;;
7571;SDS011;3827;49.928;8.548;2023-11-19T04:09:07;3.45;;;3.13;;
7571;SDS011;3827;49.928;8.548;2023-11-19T04:11:35;3.38;;;3.08;;
7571;SDS011;3827;49.928;8.548;2023-11-19T04:14:02;3.53;;;2.88;;
7571;SDS011;3827;49.928;8.548;2023-11-19T04:16:28;3.13;;;2.83;;
7571;SDS011;3827;49.928;8.548;2023-11-19T04:18:55;4.70;;;3.08;;
7571;SDS011;3827;49.928;8.548;2023-11-19T04:21:22;3.78;;;3.30;;
7571;SDS011;3827;49.928;8.548;2023-11-19T04:23:49;3.60;;;3.30;;
7571;SDS011;3827;49.928;8.548;2023-11-19T04:26:15;4.20;;;3.40;;
7571;SDS011;3827;49.928;8.548;2023-11-19T04:28:44;4.38;;;3.75;;
7571;SDS011;3827;49.928;8.548;2023-11-19T04:31:10;3.40;;;3.10;;
7571;SDS011;3827;49.928;8.548;2023-11-19T04:33:37;3.40;;;2.92;;
7571;SDS011;3827;49.928;8.548;2023-11-19T04:36:04;3.25;;;2.95;;
7571;SDS011;3827;49.928;8.548;2023-11-19T04:38:32;3.47;;;3.10;;
7571;SDS011;3827;49.928;8.548;2023-11-19T04:40:59;3.45;;;2.63;;
7571;SDS011;3827;49.928;8.548;2023-11-19T04:43:27;3.00;;;2.80;;
7571;SDS011;3827;49.928;8.548;2023-11-19T04:45:55;2.70;;;2.50;;
7571;SDS011;3827;49.928;8.548;2023-11-19T04:48:22;3.83;;;2.33;;
7571;SDS011;3827;49.928;8.548;2023-11-19T04:50:49;2.90;;;2.30;;
7571;SDS011;3827;49.928;8.548;2023-11-19T04:53:17;2.40;;;2.20;;
7571;SDS011;3827;49.928;8.548;2023-11-19T04:55:44;2.63;;;2.40;;
7571;SDS011;3827;49.928;8.548;2023-11-19T04:58:11;2.47;;;2.28;;
7571;SDS011;3827;49.928;8.548;2023-11-19T05:00:37;3.10;;;2.10;;
7571;SDS011;3827;49.928;8.548;2023-11-19T05:03:05;2.70;;;2.13;;
7571;SDS011;3827;49.928;8.548;2023-11-19T05:05:33;2.60;;;2.40;;
7571;SDS011;3827;49.928;8.548;2023-11-19T05:08:00;2.33;;;2.13;;
7571;SDS011;3827;49.928;8.548;2023-11-19T05:10:27;3.28;;;2.47;;
7571;SDS011;3827;49.928;8.548;2023-11-19T05:12:53;3.53;;;2.60;;
7571;SDS011;3827;49.928;8.548;2023-11-19T05:15:21;2.77;;;2.57;;
7571;SDS011;3827;49.928;8.548;2023-11-19T05:17:49;2.97;;;2.70;;
7571;SDS011;3827;49.928;8.548;2023-11-19T05:20:17;3.27;;;2.83;;
7571;SDS011;3827;49.928;8.548;2023-11-19T05:22:44;2.80;;;2.55;;
7571;SDS011;3827;49.928;8.548;2023-11-19T05:25:11;3.42;;;3.13;;
7571;SDS011;3827;49.928;8.548;2023-11-19T05:27:37;2.97;;;2.78;;
7571;SDS011;3827;49.928;8.548;2023-11-19T05:30:05;2.95;;;2.70;;
7571;SDS011;3827;49.928;8.548;2023-11-19T05:32:33;2.72;;;2.40;;
7571;SDS011;3827;49.928;8.548;2023-11-19T05:35:00;2.60;;;2.40;;
7571;SDS011;3827;49.928;8.548;2023-11-19T05:37:28;2.73;;;2.50;;
7571;SDS011;3827;49.928;8.548;2023-11-19T05:39:54;2.30;;;2.10;;
7571;SDS011;3827;49.928;8.548;2023-11-19T05:42:21;3.00;;;2.30;;
7571;SDS011;3827;49.928;8.548;2023-11-19T05:44:49;2.83;;;2.40;;
7571;SDS011;3827;49.928;8.548;2023-11-19T05:47:17;2.30;;;2.10;;
7571;SDS011;3827;49.928;8.548;2023-11-19T05:49:43;2.60;;;2.40;;
7571;SDS011;3827;49.928;8.548;2023-11-19T05:52:10;2.65;;;2.45;;
7571;SDS011;3827;49.928;8.548;2023-11-19T05:54:38;2.90;;;2.70;;
7571;SDS011;3827;49.928;8.548;2023-11-19T05:57:06;2.50;;;2.30;;
7571;SDS011;3827;49.928;8.548;2023-11-19T05:59:34;3.33;;;2.55;;
7571;SDS011;3827;49.928;8.548;2023-11-19T06:02:01;2.42;;;2.22;;
7571;SDS011;3827;49.928;8.548;2023-11-19T06:04:28;3.45;;;2.72;;
7571;SDS011;3827;49.928;8.548;2023-11-19T06:06:54;3.05;;;2.70;;
7571;SDS011;3827;49.928;8.548;2023-11-19T06:09:21;2.80;;;2.58;;
7571;SDS011;3827;49.928;8.548;2023-11-19T06:11:50;2.92;;;2.60;;
7571;SDS011;3827;49.928;8.548;2023-11-19T06:14:18;3.08;;;2.70;;
7571;SDS011;3827;49.928;8.548;2023-11-19T06:16:44;3.72;;;3.08;;
7571;SDS011;3827;49.928;8.548;2023-11-19T06:19:11;2.80;;;2.60;;
7571;SDS011;3827;49.928;8.548;2023-11-19T06:21:38;2.65;;;2.45;;
7571;SDS011;3827;49.928;8.548;2023-11-19T06:24:05;3.40;;;3.10;;
7571;SDS011;3827;49.928;8.548;2023-11-19T06:26:33;2.90;;;2.70;;
7571;SDS011;3827;49.928;8.548;2023-11-19T06:29:02;2.77;;;2.50;;
7571;SDS011;3827;49.928;8.548;2023-11-19T06:31:29;2.90;;;2.70;;
7571;SDS011;3827;49.928;8.548;2023-11-19T06:33:56;2.60;;;2.40;;
7571;SDS011;3827;49.928;8.548;2023-11-19T06:36:23;2.80;;;2.60;;
7571;SDS011;3827;49.928;8.548;2023-11-19T06:38:50;3.03;;;2.80;;
7571;SDS011;3827;49.928;8.548;2023-11-19T06:41:17;2.47;;;2.33;;
7571;SDS011;3827;49.928;8.548;2023-11-19T06:43:43;3.60;;;3.30;;
7571;SDS011;3827;49.928;8.548;2023-11-19T06:46:18;3.45;;;3.03;;
7571;SDS011;3827;49.928;8.548;2023-11-19T06:48:44;3.95;;;3.08;;
7571;SDS011;3827;49.928;8.548;2023-11-19T06:51:11;3.50;;;3.20;;
7571;SDS011;3827;49.928;8.548;2023-11-19T06:53:38;3.83;;;3.10;;
7571;SDS011;3827;49.928;8.548;2023-11-19T06:56:06;3.67;;;3.30;;
7571;SDS011;3827;49.928;8.548;2023-11-19T06:58:43;3.95;;;3.42;;
7571;SDS011;3827;49.928;8.548;2023-11-19T07:01:09;3.70;;;3.40;;
7571;SDS011;3827;49.928;8.548;2023-11-19T07:03:38;3.83;;;3.45;;
7571;SDS011;3827;49.928;8.548;2023-11-19T07:06:05;4.05;;;3.53;;
7571;SDS011;3827;49.928;8.548;2023-11-19T07:08:32;4.05;;;3.42;;
7571;SDS011;3827;49.928;8.548;2023-11-19T07:10:59;3.50;;;3.20;;
7571;SDS011;3827;49.928;8.548;2023-11-19T07:13:26;3.53;;;3.22;;
7571;SDS011;3827;49.928;8.548;2023-11-19T07:15:53;3.15;;;2.83;;
7571;SDS011;3827;49.928;8.548;2023-11-19T07:18:20;3.20;;;2.92;;
7571;SDS011;3827;49.928;8.548;2023-11-19T07:20:48;3.80;;;3.15;;
7571;SDS011;3827;49.928;8.548;2023-11-19T07:23:15;5.18;;;3.30;;
7571;SDS011;3827;49.928;8.548;2023-11-19T07:25:42;5.00;;;4.00;;
7571;SDS011;3827;49.928;8.548;2023-11-19T07:28:10;3.60;;;3.20;;
7571;SDS011;3827;49.928;8.548;2023-11-19T07:30:37;4.38;;;3.30;;
7571;SDS011;3827;49.928;8.548;2023-11-19T07:33:04;3.67;;;3.30;;
7571;SDS011;3827;49.928;8.548;2023-11-19T07:35:31;3.75;;;3.30;;
7571;SDS011;3827;49.928;8.548;2023-11-19T07:37:59;3.63;;;3.33;;
7571;SDS011;3827;49.928;8.548;2023-11-19T07:40:26;3.75;;;2.97;;
7571;SDS011;3827;49.928;8.548;2023-11-19T07:42:52;3.70;;;3.17;;
7571;SDS011;3827;49.928;8.548;2023-11-19T07:45:19;4.15;;;3.20;;
7571;SDS011;3827;49.928;8.548;2023-11-19T07:47:46;5.20;;;3.47;;
7571;SDS011;3827;49.928;8.548;2023-11-19T07:50:13;2.73;;;2.50;;
7571;SDS011;3827;49.928;8.548;2023-11-19T07:52:41;5.10;;;2.97;;
7571;SDS011;3827;49.928;8.548;2023-11-19T07:55:10;3.72;;;2.97;;
7571;SDS011;3827;49.928;8.548;2023-11-19T07:57:35;3.83;;;3.13;;
7571;SDS011;3827;49.928;8.548;2023-11-19T08:00:02;3.90;;;3.10;;
7571;SDS011;3827;49.928;8.548;2023-11-19T08:02:30;4.45;;;2.78;;
7571;SDS011;3827;49.928;8.548;2023-11-19T08:04:57;3.30;;;3.00;;
7571;SDS011;3827;49.928;8.548;2023-11-19T08:07:23;4.57;;;3.35;;
7571;SDS011;3827;49.928;8.548;2023-11-19T08:09:50;5.13;;;3.38;;
7571;SDS011;3827;49.928;8.548;2023-11-19T08:12:18;4.18;;;3.78;;
7571;SDS011;3827;49.928;8.548;2023-11-19T08:14:45;4.80;;;3.20;;
7571;SDS011;3827;49.928;8.548;2023-11-19T08:17:12;5.57;;;3.10;;
7571;SDS011;3827;49.928;8.548;2023-11-19T08:19:39;3.72;;;2.90;;
7571;SDS011;3827;49.928;8.548;2023-11-19T08:22:05;5.33;;;3.20;;
7571;SDS011;3827;49.928;8.548;2023-11-19T08:24:34;3.65;;;3.10;;
7571;SDS011;3827;49.928;8.548;2023-11-19T08:27:01;3.75;;;3.00;;
7571;SDS011;3827;49.928;8.548;2023-11-19T08:29:29;3.50;;;3.00;;
7571;SDS011;3827;49.928;8.548;2023-11-19T08:31:55;4.20;;;3.10;;
7571;SDS011;3827;49.928;8.548;2023-11-19T08:34:22;3.60;;;3.30;;
7571;SDS011;3827;49.928;8.548;2023-11-19T08:36:49;3.50;;;3.20;;
7571;SDS011;3827;49.928;8.548;2023-11-19T08:39:18;3.83;;;3.35;;
7571;SDS011;3827;49.928;8.548;2023-11-19T08:41:46;4.32;;;3.20;;
7571;SDS011;3827;49.928;8.548;2023-11-19T08:44:12;3.78;;;3.10;;
7571;SDS011;3827;49.928;8.548;2023-11-19T08:46:47;3.30;;;3.00;;
7571;SDS011;3827;49.928;8.548;2023-11-19T08:49:14;2.90;;;2.60;;
7571;SDS011;3827;49.928;8.548;2023-11-19T08:51:40;2.60;;;2.40;;
7571;SDS011;3827;49.928;8.548;2023-11-19T08:54:07;3.80;;;2.30;;
7571;SDS011;3827;49.928;8.548;2023-11-19T08:56:34;2.42;;;2.10;;
7571;SDS011;3827;49.928;8.548;2023-11-19T08:59:01;3.10;;;2.10;;
7571;SDS011;3827;49.928;8.548;2023-11-19T09:01:29;2.43;;;2.07;;
7571;SDS011;3827;49.928;8.548;2023-11-19T09:03:57;2.50;;;2.00;;
7571;SDS011;3827;49.928;8.548;2023-11-19T09:06:24;2.47;;;2.00;;
7571;SDS011;3827;49.928;8.548;2023-11-19T09:08:50;2.83;;;2.10;;
7571;SDS011;3827;49.928;8.548;2023-11-19T09:11:17;2.63;;;1.92;;
7571;SDS011;3827;49.928;8.548;2023-11-19T09:13:44;3.03;;;1.90;;
7571;SDS011;3827;49.928;8.548;2023-11-19T09:16:11;2.83;;;1.80;;
7571;SDS011;3827;49.928;8.548;2023-11-19T09:18:38;2.10;;;1.90;;
7571;SDS011;3827;49.928;8.548;2023-11-19T09:21:06;2.53;;;1.80;;
7571;SDS011;3827;49.928;8.548;2023-11-19T09:23:34;3.13;;;1.93;;
7571;SDS011;3827;49.928;8.548;2023-11-19T09:26:04;2.70;;;1.70;;
7571;SDS011;3827;49.928;8.548;2023-11-19T09:28:31;2.20;;;1.52;;
7571;SDS011;3827;49.928;8.548;2023-11-19T09:30:58;3.08;;;1.60;;
7571;SDS011;3827;49.928;8.548;2023-11-19T09:33:25;3.05;;;1.75;;
7571;SDS011;3827;49.928;8.548;2023-11-19T09:35:52;3.40;;;1.92;;
7571;SDS011;3827;49.928;8.548;2023-11-19T09:38:20;3.13;;;1.40;;
7571;SDS011;3827;49.928;8.548;2023-11-19T09:40:47;2.58;;;1.40;;
7571;SDS011;3827;49.928;8.548;2023-11-19T09:43:14;4.63;;;1.70;;
7571;SDS011;3827;49.928;8.548;2023-11-19T09:45:45;3.40;;;1.40;;
7571;SDS011;3827;49.928;8.548;2023-11-19T09:48:16;3.50;;;1.40;;
7571;SDS011;3827;49.928;8.548;2023-11-19T09:50:44;4.55;;;1.25;;
7571;SDS011;3827;49.928;8.548;2023-11-19T09:53:12;1.83;;;1.50;;
7571;SDS011;3827;49.928;8.548;2023-11-19T09:55:41;4.72;;;1.80;;
7571;SDS011;3827;49.928;8.548;2023-11-19T09:58:09;3.50;;;1.45;;
7571;SDS011;3827;49.928;8.548;2023-11-19T10:00:38;5.83;;;1.23;;
7571;SDS011;3827;49.928;8.548;2023-11-19T10:03:06;3.15;;;1.40;;
7571;SDS011;3827;49.928;8.548;2023-11-19T10:05:43;5.68;;;2.33;;
7571;SDS011;3827;49.928;8.548;2023-11-19T10:08:09;5.10;;;2.25;;
7571;SDS011;3827;49.928;8.548;2023-11-19T10:10:36;3.80;;;1.33;;
7571;SDS011;3827;49.928;8.548;2023-11-19T10:13:05;2.25;;;1.60;;
7571;SDS011;3827;49.928;8.548;2023-11-19T10:15:35;2.88;;;1.30;;
7571;SDS011;3827;49.928;8.548;2023-11-19T10:18:03;4.68;;;2.00;;
7571;SDS011;3827;49.928;8.548;2023-11-19T10:20:34;3.80;;;1.60;;
7571;SDS011;3827;49.928;8.548;2023-11-19T10:23:01;5.10;;;1.77;;
7571;SDS011;3827;49.928;8.548;2023-11-19T10:25:28;3.60;;;1.50;;
7571;SDS011;3827;49.928;8.548;2023-11-19T10:27:56;4.20;;;1.65;;
7571;SDS011;3827;49.928;8.548;2023-11-19T10:30:24;3.05;;;1.60;;
7571;SDS011;3827;49.928;8.548;2023-11-19T10:33:02;2.90;;;1.55;;
7571;SDS011;3827;49.928;8.548;2023-11-19T10:35:30;3.63;;;1.80;;
7571;SDS011;3827;49.928;8.548;2023-11-19T10:37:58;3.70;;;1.40;;
7571;SDS011;3827;49.928;8.548;2023-11-19T10:40:37;3.00;;;1.30;;
7571;SDS011;3827;49.928;8.548;2023-11-19T10:43:06;4.60;;;1.77;;
7571;SDS011;3827;49.928;8.548;2023-11-19T10:45:34;4.13;;;2.27;;
7571;SDS011;3827;49.928;8.548;2023-11-19T10:48:01;5.88;;;2.10;;
7571;SDS011;3827;49.928;8.548;2023-11-19T10:50:31;4.68;;;1.60;;
7571;SDS011;3827;49.928;8.548;2023-11-19T10:52:59;5.40;;;1.58;;
7571;SDS011;3827;49.928;8.548;2023-11-19T10:55:26;5.32;;;1.73;;
7571;SDS011;3827;49.928;8.548;2023-11-19T10:57:58;4.80;;;1.60;;
7571;SDS011;3827;49.928;8.548;2023-11-19T11:00:25;4.45;;;1.55;;
7571;SDS011;3827;49.928;8.548;2023-11-19T11:02:56;4.87;;;1.50;;
7571;SDS011;3827;49.928;8.548;2023-11-19T11:05:27;6.38;;;1.45;;
7571;SDS011;3827;49.928;8.548;2023-11-19T11:07:55;2.67;;;1.20;;
7571;SDS011;3827;49.928;8.548;2023-11-19T11:10:23;3.55;;;1.35;;
7571;SDS011;3827;49.928;8.548;2023-11-19T11:12:52;3.80;;;1.88;;
7571;SDS011;3827;49.928;8.548;2023-11-19T11:15:24;5.55;;;1.55;;
7571;SDS011;3827;49.928;8.548;2023-11-19T11:17:57;3.75;;;1.23;;
7571;SDS011;3827;49.928;8.548;2023-11-19T11:20:26;4.85;;;1.35;;
7571;SDS011;3827;49.928;8.548;2023-11-19T11:23:07;4.60;;;1.40;;
7571;SDS011;3827;49.928;8.548;2023-11-19T11:26:00;3.22;;;1.20;;
7571;SDS011;3827;49.928;8.548;2023-11-19T11:28:41;3.27;;;1.40;;
7571;SDS011;3827;49.928;8.548;2023-11-19T11:31:16;3.30;;;1.20;;
7571;SDS011;3827;49.928;8.548;2023-11-19T11:34:04;3.53;;;1.30;;
7571;SDS011;3827;49.928;8.548;2023-11-19T11:36:44;3.00;;;1.05;;
7571;SDS011;3827;49.928;8.548;2023-11-19T11:39:18;3.88;;;0.93;;
7571;SDS011;3827;49.928;8.548;2023-11-19T11:42:04;2.95;;;1.00;;
7571;SDS011;3827;49.928;8.548;2023-11-19T11:44:58;4.30;;;1.20;;
7571;SDS011;3827;49.928;8.548;2023-11-19T11:47:33;2.83;;;1.10;;
7571;SDS011;3827;49.928;8.548;2023-11-19T11:50:35;2.45;;;0.82;;
7571;SDS011;3827;49.928;8.548;2023-11-19T11:53:13;2.15;;;1.00;;
7571;SDS011;3827;49.928;8.548;2023-11-19T11:55:51;2.13;;;1.00;;
7571;SDS011;3827;49.928;8.548;2023-11-19T11:58:27;2.83;;;1.00;;
7571;SDS011;3827;49.928;8.548;2023-11-19T12:00:57;2.72;;;1.05;;
7571;SDS011;3827;49.928;8.548;2023-11-19T12:03:28;2.33;;;1.10;;
7571;SDS011;3827;49.928;8.548;2023-11-19T12:05:56;2.95;;;1.13;;
7571;SDS011;3827;49.928;8.548;2023-11-19T12:08:24;3.63;;;1.10;;
7571;SDS011;3827;49.928;8.548;2023-11-19T12:10:52;2.50;;;1.30;;
7571;SDS011;3827;49.928;8.548;2023-11-19T12:13:23;4.28;;;1.35;;
7571;SDS011;3827;49.928;8.548;2023-11-19T12:16:08;3.15;;;1.20;;
7571;SDS011;3827;49.928;8.548;2023-11-19T12:18:38;5.22;;;1.60;;
7571;SDS011;3827;49.928;8.548;2023-11-19T12:21:06;5.60;;;1.60;;
7571;SDS011;3827;49.928;8.548;2023-11-19T12:23:34;4.75;;;1.27;;
7571;SDS011;3827;49.928;8.548;2023-11-19T12:26:01;4.53;;;1.30;;
7571;SDS011;3827;49.928;8.548;2023-11-19T12:28:28;5.60;;;1.80;;
7571;SDS011;3827;49.928;8.548;2023-11-19T12:31:06;3.60;;;1.50;;
7571;SDS011;3827;49.928;8.548;2023-11-19T12:33:35;3.90;;;1.30;;
7571;SDS011;3827;49.928;8.548;2023-11-19T12:36:04;4.40;;;1.50;;
7571;SDS011;3827;49.928;8.548;2023-11-19T12:38:32;6.32;;;1.30;;
7571;SDS011;3827;49.928;8.548;2023-11-19T12:41:02;3.75;;;1.42;;
7571;SDS011;3827;49.928;8.548;2023-11-19T12:43:30;4.38;;;1.20;;
7571;SDS011;3827;49.928;8.548;2023-11-19T12:45:56;2.75;;;1.15;;
7571;SDS011;3827;49.928;8.548;2023-11-19T12:48:23;3.70;;;1.45;;
7571;SDS011;3827;49.928;8.548;2023-11-19T12:50:50;2.97;;;1.15;;
7571;SDS011;3827;49.928;8.548;2023-11-19T12:53:19;3.70;;;0.95;;
7571;SDS011;3827;49.928;8.548;2023-11-19T12:55:46;5.88;;;1.10;;
7571;SDS011;3827;49.928;8.548;2023-11-19T12:58:27;4.13;;;1.88;;
7571;SDS011;3827;49.928;8.548;2023-11-19T13:00:58;4.85;;;1.20;;
7571;SDS011;3827;49.928;8.548;2023-11-19T13:03:29;4.63;;;1.42;;
7571;SDS011;3827;49.928;8.548;2023-11-19T13:06:01;4.28;;;1.20;;
7571;SDS011;3827;49.928;8.548;2023-11-19T13:08:35;4.90;;;1.50;;
7571;SDS011;3827;49.928;8.548;2023-11-19T13:11:02;5.15;;;1.55;;
7571;SDS011;3827;49.928;8.548;2023-11-19T13:13:31;5.97;;;1.10;;
7571;SDS011;3827;49.928;8.548;2023-11-19T13:16:01;5.40;;;1.30;;
7571;SDS011;3827;49.928;8.548;2023-11-19T13:18:31;3.05;;;1.00;;
7571;SDS011;3827;49.928;8.548;2023-11-19T13:20:58;5.00;;;1.48;;
7571;SDS011;3827;49.928;8.548;2023-11-19T13:23:25;4.70;;;1.60;;
7571;SDS011;3827;49.928;8.548;2023-11-19T13:25:53;4.13;;;1.35;;
7571;SDS011;3827;49.928;8.548;2023-11-19T13:28:22;4.70;;;1.48;;
7571;SDS011;3827;49.928;8.548;2023-11-19T13:30:51;4.10;;;1.20;;
7571;SDS011;3827;49.928;8.548;2023-11-19T13:33:18;3.45;;;1.00;;
7571;SDS011;3827;49.928;8.548;2023-11-19T13:35:45;4.70;;;1.40;;
7571;SDS011;3827;49.928;8.548;2023-11-19T13:38:12;4.55;;;1.30;;
7571;SDS011;3827;49.928;8.548;2023-11-19T13:40:39;3.30;;;1.20;;
7571;SDS011;3827;49.928;8.548;2023-11-19T13:43:07;5.85;;;1.35;;
7571;SDS011;3827;49.928;8.548;2023-11-19T13:45:34;4.55;;;1.27;;
7571;SDS011;3827;49.928;8.548;2023-11-19T13:48:01;4.50;;;1.40;;
7571;SDS011;3827;49.928;8.548;2023-11-19T13:50:28;5.22;;;1.38;;
7571;SDS011;3827;49.928;8.548;2023-11-19T13:52:55;4.15;;;1.10;;
7571;SDS011;3827;49.928;8.548;2023-11-19T13:55:25;3.28;;;1.25;;
7571;SDS011;3827;49.928;8.548;2023-11-19T13:57:52;4.60;;;1.13;;
7571;SDS011;3827;49.928;8.548;2023-11-19T14:00:20;5.93;;;1.17;;
7571;SDS011;3827;49.928;8.548;2023-11-19T14:02:49;9.52;;;1.30;;
7571;SDS011;3827;49.928;8.548;2023-11-19T14:05:17;4.40;;;1.48;;
7571;SDS011;3827;49.928;8.548;2023-11-19T14:07:44;4.10;;;1.30;;
7571;SDS011;3827;49.928;8.548;2023-11-19T14:10:13;3.33;;;1.00;;
7571;SDS011;3827;49.928;8.548;2023-11-19T14:12:40;4.65;;;1.23;;
7571;SDS011;3827;49.928;8.548;2023-11-19T14:15:09;4.53;;;1.52;;
7571;SDS011;3827;49.928;8.548;2023-11-19T14:17:39;7.35;;;1.83;;
7571;SDS011;3827;49.928;8.548;2023-11-19T14:20:06;3.53;;;1.30;;
7571;SDS011;3827;49.928;8.548;2023-11-19T14:22:38;4.50;;;1.58;;
7571;SDS011;3827;49.928;8.548;2023-11-19T14:25:08;5.97;;;1.70;;
7571;SDS011;3827;49.928;8.548;2023-11-19T14:27:36;5.10;;;1.55;;
7571;SDS011;3827;49.928;8.548;2023-11-19T14:30:04;4.95;;;1.60;;
7571;SDS011;3827;49.928;8.548;2023-11-19T14:32:31;4.70;;;1.30;;
7571;SDS011;3827;49.928;8.548;2023-11-19T14:34:59;5.07;;;1.30;;
7571;SDS011;3827;49.928;8.548;2023-11-19T14:37:26;2.67;;;1.17;;
7571;SDS011;3827;49.928;8.548;2023-11-19T14:39:53;4.95;;;1.38;;
7571;SDS011;3827;49.928;8.548;2023-11-19T14:42:19;5.88;;;1.38;;
7571;SDS011;3827;49.928;8.548;2023-11-19T14:44:45;4.93;;;1.33;;
7571;SDS011;3827;49.928;8.548;2023-11-19T14:47:12;7.30;;;1.90;;
7571;SDS011;3827;49.928;8.548;2023-11-19T14:49:39;5.53;;;1.83;;
7571;SDS011;3827;49.928;8.548;2023-11-19T14:52:07;5.30;;;1.40;;
7571;SDS011;3827;49.928;8.548;2023-11-19T14:54:35;4.63;;;1.30;;
7571;SDS011;3827;49.928;8.548;2023-11-19T14:57:02;5.32;;;1.50;;
7571;SDS011;3827;49.928;8.548;2023-11-19T14:59:29;5.18;;;1.40;;
7571;SDS011;3827;49.928;8.548;2023-11-19T15:01:56;3.78;;;1.20;;
7571;SDS011;3827;49.928;8.548;2023-11-19T15:04:23;7.13;;;1.70;;
7571;SDS011;3827;49.928;8.548;2023-11-19T15:06:52;4.80;;;1.23;;
7571;SDS011;3827;49.928;8.548;2023-11-19T15:09:20;5.68;;;1.52;;
7571;SDS011;3827;49.928;8.548;2023-11-19T15:11:47;3.17;;;1.23;;
7571;SDS011;3827;49.928;8.548;2023-11-19T15:14:14;3.65;;;1.10;;
7571;SDS011;3827;49.928;8.548;2023-11-19T15:16:44;4.20;;;1.27;;
7571;SDS011;3827;49.928;8.548;2023-11-19T15:19:12;4.10;;;1.38;;
7571;SDS011;3827;49.928;8.548;2023-11-19T15:21:39;3.73;;;1.30;;
7571;SDS011;3827;49.928;8.548;2023-11-19T15:24:07;3.50;;;1.20;;